sensor_id;sensor_type;location;lat;lon;timestamp;pressure;altitude;pressure_sealevel;temperature;humidity
53270;BME280;39159;45.634;9.420;2023-12-20T00:02:05;98922.84;;;4.57;100.00
53270;BME280;39159;45.634;9.420;2023-12-20T00:04:30;98917.44;;;4.57;100.00
53270;BME280;39159;45.634;9.420;2023-12-20T00:06:56;98913.91;;;4.57;100.00
53270;BME280;39159;45.634;9.420;2023-12-20T00:09:21;98910.16;;;4.58;100.00
53270;BME280;39159;45.634;9.420;2023-12-20T00:11:47;98907.97;;;4.60;100.00
53270;BME280;39159;45.634;9.420;2023-12-20T00:14:12;98907.72;;;4.62;100.00
53270;BME280;39159;45.634;9.420;2023-12-20T00:16:37;98905.81;;;4.62;100.00
53270;BME280;39159;45.634;9.420;2023-12-20T00:19:03;98906.34;;;4.64;100.00
53270;BME280;39159;45.634;9.420;2023-12-20T00:21:28;98906.63;;;4.63;100.00
53270;BME280;39159;45.634;9.420;2023-12-20T00:23:53;98898.22;;;4.49;100.00
53270;BME280;39159;45.634;9.420;2023-12-20T00:26:19;98900.94;;;4.39;100.00
53270;BME280;39159;45.634;9.420;2023-12-20T00:28:44;98892.28;;;4.36;100.00
53270;BME280;39159;45.634;9.420;2023-12-20T00:31:09;98876.88;;;4.37;100.00
53270;BME280;39159;45.634;9.420;2023-12-20T00:33:35;98873.38;;;4.42;100.00
53270;BME280;39159;45.634;9.420;2023-12-20T00:36:00;98859.34;;;4.45;100.00
53270;BME280;39159;45.634;9.420;2023-12-20T00:38:25;98864.19;;;4.53;100.00
53270;BME280;39159;45.634;9.420;2023-12-20T00:40:51;98858.53;;;4.54;100.00
53270;BME280;39159;45.634;9.420;2023-12-20T00:43:16;98859.06;;;4.56;100.00
53270;BME280;39159;45.634;9.420;2023-12-20T00:45:41;98851.22;;;4.60;100.00
53270;BME280;39159;45.634;9.420;2023-12-20T00:48:07;98849.59;;;4.64;100.00
53270;BME280;39159;45.634;9.420;2023-12-20T00:50:32;98855.81;;;4.70;100.00
53270;BME280;39159;45.634;9.420;2023-12-20T00:52:58;98846.34;;;4.72;100.00
53270;BME280;39159;45.634;9.420;2023-12-20T00:55:23;98845.78;;;4.75;100.00
53270;BME280;39159;45.634;9.420;2023-12-20T00:57:49;98849.31;;;4.81;100.00
53270;BME280;39159;45.634;9.420;2023-12-20T01:00:14;98849.06;;;4.83;100.00
53270;BME280;39159;45.634;9.420;2023-12-20T01:02:40;98848.50;;;4.86;100.00
53270;BME280;39159;45.634;9.420;2023-12-20T01:05:06;98851.47;;;4.89;100.00
53270;BME280;39159;45.634;9.420;2023-12-20T01:07:32;98854.16;;;4.84;100.00
53270;BME280;39159;45.634;9.420;2023-12-20T01:09:57;98852.56;;;4.78;100.00
53270;BME280;39159;45.634;9.420;2023-12-20T01:12:23;98838.22;;;4.77;100.00
53270;BME280;39159;45.634;9.420;2023-12-20T01:14:48;98847.16;;;4.73;100.00
53270;BME280;39159;45.634;9.420;2023-12-20T01:17:14;98851.50;;;4.64;100.00
53270;BME280;39159;45.634;9.420;2023-12-20T01:19:39;98853.38;;;4.63;100.00
53270;BME280;39159;45.634;9.420;2023-12-20T01:22:04;98842.31;;;4.65;100.00
53270;BME280;39159;45.634;9.420;2023-12-20T01:24:30;98838.22;;;4.62;100.00
53270;BME280;39159;45.634;9.420;2023-12-20T01:26:56;98837.44;;;4.56;100.00
53270;BME280;39159;45.634;9.420;2023-12-20T01:29:21;98835.25;;;4.53;100.00
53270;BME280;39159;45.634;9.420;2023-12-20T01:31:47;98821.22;;;4.56;100.00
53270;BME280;39159;45.634;9.420;2023-12-20T01:34:12;98820.97;;;4.58;100.00
53270;BME280;39159;45.634;9.420;2023-12-20T01:36:37;98825.00;;;4.61;100.00
53270;BME280;39159;45.634;9.420;2023-12-20T01:39:03;98810.94;;;4.64;100.00
53270;BME280;39159;45.634;9.420;2023-12-20T01:41:29;98801.22;;;4.68;100.00
53270;BME280;39159;45.634;9.420;2023-12-20T01:43:54;98805.53;;;4.74;100.00
53270;BME280;39159;45.634;9.420;2023-12-20T01:46:20;98800.94;;;4.74;100.00
53270;BME280;39159;45.634;9.420;2023-12-20T01:48:46;98790.66;;;4.76;100.00
53270;BME280;39159;45.634;9.420;2023-12-20T01:51:12;98794.97;;;4.77;100.00
53270;BME280;39159;45.634;9.420;2023-12-20T01:53:38;98786.59;;;4.79;100.00
53270;BME280;39159;45.634;9.420;2023-12-20T01:56:05;98778.22;;;4.81;100.00
53270;BME280;39159;45.634;9.420;2023-12-20T01:58:30;98765.22;;;4.83;100.00
53270;BME280;39159;45.634;9.420;2023-12-20T02:00:57;98768.72;;;4.88;100.00
53270;BME280;39159;45.634;9.420;2023-12-20T02:03:22;98767.91;;;4.88;100.00
53270;BME280;39159;45.634;9.420;2023-12-20T02:05:48;98758.69;;;4.89;100.00
53270;BME280;39159;45.634;9.420;2023-12-20T02:08:13;98762.78;;;4.91;100.00
53270;BME280;39159;45.634;9.420;2023-12-20T02:10:39;98759.78;;;4.93;100.00
53270;BME280;39159;45.634;9.420;2023-12-20T02:13:05;98763.59;;;4.92;100.00
53270;BME280;39159;45.634;9.420;2023-12-20T02:15:31;98756.00;;;4.94;100.00
53270;BME280;39159;45.634;9.420;2023-12-20T02:17:56;98756.53;;;4.91;100.00
53270;BME280;39159;45.634;9.420;2023-12-20T02:20:22;98757.63;;;4.90;100.00
53270;BME280;39159;45.634;9.420;2023-12-20T02:22:47;98741.66;;;4.93;100.00
53270;BME280;39159;45.634;9.420;2023-12-20T02:25:13;98741.38;;;4.95;100.00
53270;BME280;39159;45.634;9.420;2023-12-20T02:27:39;98738.16;;;4.93;100.00
53270;BME280;39159;45.634;9.420;2023-12-20T02:30:05;98737.63;;;4.96;100.00
53270;BME280;39159;45.634;9.420;2023-12-20T02:32:31;98738.41;;;4.96;100.00
53270;BME280;39159;45.634;9.420;2023-12-20T02:34:57;98738.94;;;4.93;100.00
53270;BME280;39159;45.634;9.420;2023-12-20T02:37:22;98735.47;;;4.88;100.00
53270;BME280;39159;45.634;9.420;2023-12-20T02:39:48;98727.91;;;4.85;100.00
53270;BME280;39159;45.634;9.420;2023-12-20T02:42:13;98718.16;;;4.84;100.00
53270;BME280;39159;45.634;9.420;2023-12-20T02:44:39;98710.63;;;4.81;100.00
53270;BME280;39159;45.634;9.420;2023-12-20T02:47:04;98710.88;;;4.84;100.00
53270;BME280;39159;45.634;9.420;2023-12-20T02:49:30;98713.03;;;4.87;100.00
53270;BME280;39159;45.634;9.420;2023-12-20T02:51:55;98715.44;;;4.89;100.00
53270;BME280;39159;45.634;9.420;2023-12-20T02:54:20;98716.81;;;4.91;100.00
53270;BME280;39159;45.634;9.420;2023-12-20T02:56:46;98712.47;;;4.90;100.00
53270;BME280;39159;45.634;9.420;2023-12-20T02:59:12;98705.69;;;4.93;100.00
53270;BME280;39159;45.634;9.420;2023-12-20T03:01:44;98709.47;;;4.97;100.00
53270;BME280;39159;45.634;9.420;2023-12-20T03:04:10;98712.44;;;4.95;100.00
53270;BME280;39159;45.634;9.420;2023-12-20T03:06:36;98714.38;;;4.90;100.00
53270;BME280;39159;45.634;9.420;2023-12-20T03:09:01;98708.16;;;4.89;100.00
53270;BME280;39159;45.634;9.420;2023-12-20T03:11:27;98708.16;;;4.89;100.00
53270;BME280;39159;45.634;9.420;2023-12-20T03:13:53;98707.31;;;4.89;100.00
53270;BME280;39159;45.634;9.420;2023-12-20T03:16:18;98706.53;;;4.88;100.00
53270;BME280;39159;45.634;9.420;2023-12-20T03:18:44;98693.81;;;4.89;100.00
53270;BME280;39159;45.634;9.420;2023-12-20T03:21:09;98688.41;;;4.89;100.00
53270;BME280;39159;45.634;9.420;2023-12-20T03:23:34;98686.25;;;4.86;100.00
53270;BME280;39159;45.634;9.420;2023-12-20T03:26:00;98677.88;;;4.82;100.00
53270;BME280;39159;45.634;9.420;2023-12-20T03:28:26;98681.41;;;4.77;100.00
53270;BME280;39159;45.634;9.420;2023-12-20T03:30:52;98687.13;;;4.76;100.00
53270;BME280;39159;45.634;9.420;2023-12-20T03:33:17;98693.09;;;4.68;100.00
53270;BME280;39159;45.634;9.420;2023-12-20T03:35:42;98689.63;;;4.52;100.00
53270;BME280;39159;45.634;9.420;2023-12-20T03:38:08;98686.66;;;4.48;100.00
53270;BME280;39159;45.634;9.420;2023-12-20T03:40:33;98679.63;;;4.42;100.00
53270;BME280;39159;45.634;9.420;2023-12-20T03:42:59;98678.28;;;4.40;100.00
53270;BME280;39159;45.634;9.420;2023-12-20T03:45:24;98669.94;;;4.41;100.00
53270;BME280;39159;45.634;9.420;2023-12-20T03:47:50;98677.47;;;4.44;100.00
53270;BME280;39159;45.634;9.420;2023-12-20T03:50:20;98672.06;;;4.44;100.00
53270;BME280;39159;45.634;9.420;2023-12-20T03:52:45;98682.88;;;4.44;100.00
53270;BME280;39159;45.634;9.420;2023-12-20T03:55:11;98688.84;;;4.41;100.00
53270;BME280;39159;45.634;9.420;2023-12-20T03:57:36;98688.59;;;4.32;100.00
53270;BME280;39159;45.634;9.420;2023-12-20T04:00:02;98681.84;;;4.30;100.00
53270;BME280;39159;45.634;9.420;2023-12-20T04:02:27;98671.00;;;4.35;100.00
53270;BME280;39159;45.634;9.420;2023-12-20T04:04:53;98666.44;;;4.30;100.00
53270;BME280;39159;45.634;9.420;2023-12-20T04:07:18;98667.53;;;4.24;100.00
53270;BME280;39159;45.634;9.420;2023-12-20T04:09:43;98671.06;;;4.25;100.00
53270;BME280;39159;45.634;9.420;2023-12-20T04:12:09;98672.41;;;4.27;100.00
53270;BME280;39159;45.634;9.420;2023-12-20T04:14:34;98671.06;;;4.25;100.00
53270;BME280;39159;45.634;9.420;2023-12-20T04:16:59;98661.84;;;4.26;100.00
53270;BME280;39159;45.634;9.420;2023-12-20T04:19:25;98665.91;;;4.28;100.00
53270;BME280;39159;45.634;9.420;2023-12-20T04:21:50;98665.06;;;4.33;100.00
53270;BME280;39159;45.634;9.420;2023-12-20T04:24:15;98657.78;;;4.39;100.00
53270;BME280;39159;45.634;9.420;2023-12-20T04:26:41;98648.84;;;4.43;100.00
53270;BME280;39159;45.634;9.420;2023-12-20T04:29:06;98651.53;;;4.48;100.00
53270;BME280;39159;45.634;9.420;2023-12-20T04:31:31;98648.81;;;4.48;100.00
53270;BME280;39159;45.634;9.420;2023-12-20T04:33:57;98647.22;;;4.42;100.00
53270;BME280;39159;45.634;9.420;2023-12-20T04:36:22;98649.13;;;4.42;100.00
53270;BME280;39159;45.634;9.420;2023-12-20T04:38:48;98653.72;;;4.41;100.00
53270;BME280;39159;45.634;9.420;2023-12-20T04:41:14;98664.53;;;4.41;100.00
53270;BME280;39159;45.634;9.420;2023-12-20T04:43:43;98666.41;;;4.41;100.00
53270;BME280;39159;45.634;9.420;2023-12-20T04:46:09;98656.69;;;4.40;100.00
53270;BME280;39159;45.634;9.420;2023-12-20T04:48:34;98658.84;;;4.43;100.00
53270;BME280;39159;45.634;9.420;2023-12-20T04:51:00;98651.28;;;4.45;100.00
53270;BME280;39159;45.634;9.420;2023-12-20T04:53:25;98652.63;;;4.47;100.00
53270;BME280;39159;45.634;9.420;2023-12-20T04:55:51;98651.00;;;4.51;100.00
53270;BME280;39159;45.634;9.420;2023-12-20T04:58:16;98620.97;;;4.58;100.00
53270;BME280;39159;45.634;9.420;2023-12-20T05:00:41;98599.63;;;4.56;100.00
53270;BME280;39159;45.634;9.420;2023-12-20T05:03:07;98624.19;;;4.60;100.00
53270;BME280;39159;45.634;9.420;2023-12-20T05:05:33;98614.72;;;4.57;100.00
53270;BME280;39159;45.634;9.420;2023-12-20T05:07:58;98612.31;;;4.51;100.00
53270;BME280;39159;45.634;9.420;2023-12-20T05:10:24;98622.91;;;4.47;100.00
53270;BME280;39159;45.634;9.420;2023-12-20T05:12:49;98622.34;;;4.50;100.00
53270;BME280;39159;45.634;9.420;2023-12-20T05:15:14;98619.09;;;4.48;100.00
53270;BME280;39159;45.634;9.420;2023-12-20T05:17:40;98636.66;;;4.56;100.00
53270;BME280;39159;45.634;9.420;2023-12-20T05:20:06;98638.22;;;4.62;100.00
53270;BME280;39159;45.634;9.420;2023-12-20T05:22:31;98633.91;;;4.61;100.00
53270;BME280;39159;45.634;9.420;2023-12-20T05:24:57;98630.34;;;4.71;100.00
53270;BME280;39159;45.634;9.420;2023-12-20T05:27:22;98609.50;;;4.82;100.00
53270;BME280;39159;45.634;9.420;2023-12-20T05:29:47;98610.06;;;4.73;100.00
53270;BME280;39159;45.634;9.420;2023-12-20T05:32:13;98623.56;;;4.73;100.00
53270;BME280;39159;45.634;9.420;2023-12-20T05:34:38;98614.13;;;4.76;100.00
53270;BME280;39159;45.634;9.420;2023-12-20T05:37:04;98617.66;;;4.71;100.00
53270;BME280;39159;45.634;9.420;2023-12-20T05:39:29;98631.44;;;4.70;100.00
53270;BME280;39159;45.634;9.420;2023-12-20T05:41:56;98630.94;;;4.63;100.00
53270;BME280;39159;45.634;9.420;2023-12-20T05:44:21;98627.44;;;4.57;100.00
53270;BME280;39159;45.634;9.420;2023-12-20T05:46:47;98614.97;;;4.66;100.00
53270;BME280;39159;45.634;9.420;2023-12-20T05:49:12;98614.41;;;4.74;100.00
53270;BME280;39159;45.634;9.420;2023-12-20T05:51:38;98603.00;;;4.83;100.00
53270;BME280;39159;45.634;9.420;2023-12-20T05:54:04;98610.78;;;4.94;100.00
53270;BME280;39159;45.634;9.420;2023-12-20T05:56:29;98603.13;;;5.07;100.00
53270;BME280;39159;45.634;9.420;2023-12-20T05:58:54;98597.97;;;5.10;100.00
53270;BME280;39159;45.634;9.420;2023-12-20T06:01:20;98590.44;;;5.07;100.00
53270;BME280;39159;45.634;9.420;2023-12-20T06:03:45;98587.16;;;5.10;100.00
53270;BME280;39159;45.634;9.420;2023-12-20T06:06:13;98592.25;;;5.17;100.00
53270;BME280;39159;45.634;9.420;2023-12-20T06:08:39;98592.19;;;5.27;100.00
53270;BME280;39159;45.634;9.420;2023-12-20T06:11:04;98608.69;;;5.26;100.00
53270;BME280;39159;45.634;9.420;2023-12-20T06:13:30;98619.81;;;5.19;100.00
53270;BME280;39159;45.634;9.420;2023-12-20T06:15:56;98635.00;;;5.15;100.00
53270;BME280;39159;45.634;9.420;2023-12-20T06:18:22;98629.34;;;5.11;100.00
53270;BME280;39159;45.634;9.420;2023-12-20T06:20:47;98633.16;;;5.05;100.00
53270;BME280;39159;45.634;9.420;2023-12-20T06:23:12;98627.72;;;5.10;100.00
53270;BME280;39159;45.634;9.420;2023-12-20T06:25:38;98626.97;;;5.05;100.00
53270;BME280;39159;45.634;9.420;2023-12-20T06:28:03;98638.81;;;5.09;100.00
53270;BME280;39159;45.634;9.420;2023-12-20T06:30:29;98632.56;;;5.13;100.00
53270;BME280;39159;45.634;9.420;2023-12-20T06:32:54;98642.59;;;5.13;100.00
53270;BME280;39159;45.634;9.420;2023-12-20T06:35:20;98634.19;;;5.14;100.00
53270;BME280;39159;45.634;9.420;2023-12-20T06:37:45;98634.44;;;5.18;100.00
53270;BME280;39159;45.634;9.420;2023-12-20T06:40:11;98624.13;;;5.20;100.00
53270;BME280;39159;45.634;9.420;2023-12-20T06:42:36;98630.38;;;5.21;100.00
53270;BME280;39159;45.634;9.420;2023-12-20T06:45:02;98625.44;;;5.28;100.00
53270;BME280;39159;45.634;9.420;2023-12-20T06:47:29;98630.81;;;5.33;100.00
53270;BME280;39159;45.634;9.420;2023-12-20T06:49:54;98633.22;;;5.39;100.00
53270;BME280;39159;45.634;9.420;2023-12-20T06:52:20;98621.00;;;5.47;100.00
53270;BME280;39159;45.634;9.420;2023-12-20T06:54:45;98610.97;;;5.48;100.00
53270;BME280;39159;45.634;9.420;2023-12-20T06:57:11;98621.19;;;5.56;100.00
53270;BME280;39159;45.634;9.420;2023-12-20T06:59:40;98623.59;;;5.57;100.00
53270;BME280;39159;45.634;9.420;2023-12-20T07:02:06;98621.16;;;5.61;100.00
53270;BME280;39159;45.634;9.420;2023-12-20T07:04:31;98616.78;;;5.65;100.00
53270;BME280;39159;45.634;9.420;2023-12-20T07:06:56;98612.69;;;5.68;100.00
53270;BME280;39159;45.634;9.420;2023-12-20T07:09:25;98614.59;;;5.67;100.00
53270;BME280;39159;45.634;9.420;2023-12-20T07:11:51;98615.94;;;5.70;100.00
53270;BME280;39159;45.634;9.420;2023-12-20T07:14:17;98617.78;;;5.74;100.00
53270;BME280;39159;45.634;9.420;2023-12-20T07:16:42;98616.94;;;5.79;100.00
53270;BME280;39159;45.634;9.420;2023-12-20T07:19:07;98617.41;;;5.86;100.00
53270;BME280;39159;45.634;9.420;2023-12-20T07:21:33;98617.34;;;5.91;100.00
53270;BME280;39159;45.634;9.420;2023-12-20T07:23:58;98603.81;;;5.96;100.00
53270;BME280;39159;45.634;9.420;2023-12-20T07:26:23;98608.31;;;6.06;100.00
53270;BME280;39159;45.634;9.420;2023-12-20T07:28:49;98606.88;;;6.14;100.00
53270;BME280;39159;45.634;9.420;2023-12-20T07:31:17;98611.66;;;6.22;100.00
53270;BME280;39159;45.634;9.420;2023-12-20T07:33:43;98596.72;;;6.25;100.00
53270;BME280;39159;45.634;9.420;2023-12-20T07:36:08;98612.75;;;6.21;100.00
53270;BME280;39159;45.634;9.420;2023-12-20T07:38:34;98599.28;;;6.16;100.00
53270;BME280;39159;45.634;9.420;2023-12-20T07:40:59;98600.34;;;6.15;100.00
53270;BME280;39159;45.634;9.420;2023-12-20T07:43:24;98590.91;;;6.12;100.00
53270;BME280;39159;45.634;9.420;2023-12-20T07:45:50;98600.94;;;6.12;100.00
53270;BME280;39159;45.634;9.420;2023-12-20T07:48:15;98596.06;;;6.09;100.00
53270;BME280;39159;45.634;9.420;2023-12-20T07:50:41;98594.47;;;6.08;100.00
53270;BME280;39159;45.634;9.420;2023-12-20T07:53:06;98600.69;;;6.08;100.00
53270;BME280;39159;45.634;9.420;2023-12-20T07:55:32;98604.50;;;6.07;100.00
53270;BME280;39159;45.634;9.420;2023-12-20T07:57:57;98605.84;;;6.10;100.00
53270;BME280;39159;45.634;9.420;2023-12-20T08:00:23;98597.72;;;6.10;100.00
53270;BME280;39159;45.634;9.420;2023-12-20T08:02:48;98591.97;;;6.11;100.00
53270;BME280;39159;45.634;9.420;2023-12-20T08:05:14;98592.50;;;6.13;100.00
53270;BME280;39159;45.634;9.420;2023-12-20T08:07:39;98600.59;;;6.18;100.00
53270;BME280;39159;45.634;9.420;2023-12-20T08:10:05;98599.22;;;6.21;100.00
53270;BME280;39159;45.634;9.420;2023-12-20T08:12:30;98595.91;;;6.24;100.00
53270;BME280;39159;45.634;9.420;2023-12-20T08:14:56;98602.38;;;6.28;100.00
53270;BME280;39159;45.634;9.420;2023-12-20T08:17:22;98603.44;;;6.32;100.00
53270;BME280;39159;45.634;9.420;2023-12-20T08:19:48;98594.72;;;6.35;100.00
53270;BME280;39159;45.634;9.420;2023-12-20T08:22:14;98596.78;;;6.43;100.00
53270;BME280;39159;45.634;9.420;2023-12-20T08:24:39;98595.91;;;6.48;100.00
53270;BME280;39159;45.634;9.420;2023-12-20T08:27:04;98603.47;;;6.51;100.00
53270;BME280;39159;45.634;9.420;2023-12-20T08:29:30;98601.78;;;6.55;100.00
53270;BME280;39159;45.634;9.420;2023-12-20T08:31:56;98607.16;;;6.60;100.00
53270;BME280;39159;45.634;9.420;2023-12-20T08:34:21;98598.16;;;6.65;100.00
53270;BME280;39159;45.634;9.420;2023-12-20T08:36:47;98589.16;;;6.70;100.00
53270;BME280;39159;45.634;9.420;2023-12-20T08:39:12;98579.09;;;6.70;100.00
53270;BME280;39159;45.634;9.420;2023-12-20T08:41:38;98590.66;;;6.76;100.00
53270;BME280;39159;45.634;9.420;2023-12-20T08:44:03;98587.97;;;6.76;100.00
53270;BME280;39159;45.634;9.420;2023-12-20T08:46:29;98595.28;;;6.75;100.00
53270;BME280;39159;45.634;9.420;2023-12-20T08:48:54;98593.63;;;6.79;100.00
53270;BME280;39159;45.634;9.420;2023-12-20T08:51:20;98584.59;;;6.84;100.00
53270;BME280;39159;45.634;9.420;2023-12-20T08:53:48;98577.00;;;6.86;100.00
53270;BME280;39159;45.634;9.420;2023-12-20T08:56:14;98566.94;;;6.87;100.00
53270;BME280;39159;45.634;9.420;2023-12-20T08:58:39;98561.16;;;6.93;100.00
53270;BME280;39159;45.634;9.420;2023-12-20T09:01:05;98555.16;;;6.96;100.00
53270;BME280;39159;45.634;9.420;2023-12-20T09:03:30;98562.97;;;6.98;100.00
53270;BME280;39159;45.634;9.420;2023-12-20T09:05:56;98566.53;;;6.98;100.00
53270;BME280;39159;45.634;9.420;2023-12-20T09:08:21;98567.31;;;6.99;100.00
53270;BME280;39159;45.634;9.420;2023-12-20T09:10:47;98571.63;;;7.00;100.00
53270;BME280;39159;45.634;9.420;2023-12-20T09:13:12;98566.72;;;7.02;100.00
53270;BME280;39159;45.634;9.420;2023-12-20T09:15:37;98561.00;;;7.03;100.00
53270;BME280;39159;45.634;9.420;2023-12-20T09:18:03;98536.31;;;7.05;100.00
53270;BME280;39159;45.634;9.420;2023-12-20T09:20:28;98550.66;;;7.05;100.00
53270;BME280;39159;45.634;9.420;2023-12-20T09:22:54;98562.03;;;7.08;100.00
53270;BME280;39159;45.634;9.420;2023-12-20T09:25:19;98554.69;;;7.08;100.00
53270;BME280;39159;45.634;9.420;2023-12-20T09:27:44;98548.66;;;7.11;100.00
53270;BME280;39159;45.634;9.420;2023-12-20T09:30:10;98562.75;;;7.13;100.00
53270;BME280;39159;45.634;9.420;2023-12-20T09:32:35;98574.13;;;7.15;100.00
53270;BME280;39159;45.634;9.420;2023-12-20T09:35:02;98586.59;;;7.16;100.00
53270;BME280;39159;45.634;9.420;2023-12-20T09:37:27;98587.19;;;7.13;100.00
53270;BME280;39159;45.634;9.420;2023-12-20T09:39:53;98587.84;;;7.05;100.00
53270;BME280;39159;45.634;9.420;2023-12-20T09:42:24;98590.22;;;7.12;100.00
53270;BME280;39159;45.634;9.420;2023-12-20T09:44:55;98585.72;;;7.21;100.00
53270;BME280;39159;45.634;9.420;2023-12-20T09:47:23;98585.88;;;7.30;100.00
53270;BME280;39159;45.634;9.420;2023-12-20T09:49:50;98565.38;;;7.37;100.00
53270;BME280;39159;45.634;9.420;2023-12-20T09:52:16;98568.00;;;7.42;100.00
53270;BME280;39159;45.634;9.420;2023-12-20T09:54:43;98577.47;;;7.45;100.00
53270;BME280;39159;45.634;9.420;2023-12-20T09:57:09;98580.09;;;7.50;100.00
53270;BME280;39159;45.634;9.420;2023-12-20T09:59:34;98576.50;;;7.55;100.00
53270;BME280;39159;45.634;9.420;2023-12-20T10:02:01;98576.13;;;7.61;100.00
53270;BME280;39159;45.634;9.420;2023-12-20T10:04:31;98570.06;;;7.64;100.00
53270;BME280;39159;45.634;9.420;2023-12-20T10:06:57;98553.38;;;7.71;100.00
53270;BME280;39159;45.634;9.420;2023-12-20T10:09:28;98551.13;;;7.78;100.00
53270;BME280;39159;45.634;9.420;2023-12-20T10:11:54;98544.97;;;7.86;100.00
53270;BME280;39159;45.634;9.420;2023-12-20T10:14:21;98547.81;;;7.95;100.00
53270;BME280;39159;45.634;9.420;2023-12-20T10:16:48;98548.13;;;8.07;100.00
53270;BME280;39159;45.634;9.420;2023-12-20T10:19:16;98550.34;;;8.19;100.00
53270;BME280;39159;45.634;9.420;2023-12-20T10:21:42;98553.94;;;8.28;100.00
53270;BME280;39159;45.634;9.420;2023-12-20T10:24:08;98561.63;;;8.40;100.00
53270;BME280;39159;45.634;9.420;2023-12-20T10:26:33;98566.34;;;8.62;100.00
53270;BME280;39159;45.634;9.420;2023-12-20T10:29:02;98561.44;;;9.01;100.00
53270;BME280;39159;45.634;9.420;2023-12-20T10:31:33;98552.25;;;9.33;100.00
53270;BME280;39159;45.634;9.420;2023-12-20T10:34:00;98541.72;;;9.63;100.00
53270;BME280;39159;45.634;9.420;2023-12-20T10:36:27;98536.13;;;9.99;95.26
53270;BME280;39159;45.634;9.420;2023-12-20T10:38:54;98525.88;;;10.36;94.85
53270;BME280;39159;45.634;9.420;2023-12-20T10:41:32;98519.66;;;10.62;91.02
53270;BME280;39159;45.634;9.420;2023-12-20T10:44:00;98515.78;;;10.63;91.44
53270;BME280;39159;45.634;9.420;2023-12-20T10:46:26;98512.91;;;10.59;92.16
53270;BME280;39159;45.634;9.420;2023-12-20T10:48:56;98511.50;;;10.79;93.93
53270;BME280;39159;45.634;9.420;2023-12-20T10:51:22;98515.81;;;11.06;93.70
53270;BME280;39159;45.634;9.420;2023-12-20T10:53:49;98509.56;;;11.23;92.39
53270;BME280;39159;45.634;9.420;2023-12-20T10:56:18;98500.25;;;11.15;93.43
53270;BME280;39159;45.634;9.420;2023-12-20T10:58:45;98509.22;;;11.25;92.52
53270;BME280;39159;45.634;9.420;2023-12-20T11:01:15;98505.22;;;11.05;90.65
53270;BME280;39159;45.634;9.420;2023-12-20T11:03:47;98501.06;;;11.07;91.69
53270;BME280;39159;45.634;9.420;2023-12-20T11:12:09;98492.97;;;10.41;97.09
53270;BME280;39159;45.634;9.420;2023-12-20T11:14:48;98488.13;;;10.38;96.78
53270;BME280;39159;45.634;9.420;2023-12-20T11:17:14;98478.69;;;10.44;96.67
53270;BME280;39159;45.634;9.420;2023-12-20T11:22:25;98487.09;;;10.08;98.91
53270;BME280;39159;45.634;9.420;2023-12-20T11:24:52;98488.09;;;10.21;97.46
53270;BME280;39159;45.634;9.420;2023-12-20T11:27:21;98483.69;;;10.60;96.92
53270;BME280;39159;45.634;9.420;2023-12-20T11:29:54;98481.28;;;10.84;92.96
53270;BME280;39159;45.634;9.420;2023-12-20T11:34:51;98484.34;;;11.09;93.26
53270;BME280;39159;45.634;9.420;2023-12-20T11:37:16;98472.47;;;11.69;89.73
53270;BME280;39159;45.634;9.420;2023-12-20T11:39:44;98470.66;;;11.91;87.60
53270;BME280;39159;45.634;9.420;2023-12-20T11:42:10;98479.75;;;12.12;84.93
53270;BME280;39159;45.634;9.420;2023-12-20T11:44:36;98485.25;;;12.33;83.33
53270;BME280;39159;45.634;9.420;2023-12-20T11:47:02;98481.28;;;12.22;83.25
53270;BME280;39159;45.634;9.420;2023-12-20T11:49:27;98476.41;;;11.98;82.35
53270;BME280;39159;45.634;9.420;2023-12-20T11:51:56;98475.03;;;11.92;81.31
53270;BME280;39159;45.634;9.420;2023-12-20T11:54:22;98475.06;;;11.74;82.29
53270;BME280;39159;45.634;9.420;2023-12-20T11:56:48;98475.56;;;11.59;82.32
53270;BME280;39159;45.634;9.420;2023-12-20T11:59:13;98471.41;;;11.53;84.27
53270;BME280;39159;45.634;9.420;2023-12-20T12:01:39;98462.63;;;11.30;83.48
53270;BME280;39159;45.634;9.420;2023-12-20T12:04:07;98474.06;;;11.23;84.03
53270;BME280;39159;45.634;9.420;2023-12-20T12:06:33;98471.03;;;10.90;87.28
53270;BME280;39159;45.634;9.420;2023-12-20T12:08:58;98469.09;;;10.90;86.74
53270;BME280;39159;45.634;9.420;2023-12-20T12:11:24;98463.16;;;10.62;89.24
53270;BME280;39159;45.634;9.420;2023-12-20T12:13:50;98462.19;;;10.49;90.91
53270;BME280;39159;45.634;9.420;2023-12-20T12:16:19;98460.25;;;10.41;91.94
53270;BME280;39159;45.634;9.420;2023-12-20T12:18:45;98465.13;;;10.13;93.56
53270;BME280;39159;45.634;9.420;2023-12-20T12:21:10;98459.63;;;10.04;94.33
53270;BME280;39159;45.634;9.420;2023-12-20T12:23:43;98446.78;;;9.87;95.37
53270;BME280;39159;45.634;9.420;2023-12-20T12:26:08;98449.41;;;10.10;94.23
53270;BME280;39159;45.634;9.420;2023-12-20T12:28:34;98443.56;;;10.69;93.50
53270;BME280;39159;45.634;9.420;2023-12-20T12:30:59;98441.75;;;11.25;87.36
53270;BME280;39159;45.634;9.420;2023-12-20T12:33:25;98442.63;;;11.55;84.74
53270;BME280;39159;45.634;9.420;2023-12-20T12:35:51;98434.53;;;11.76;82.24
53270;BME280;39159;45.634;9.420;2023-12-20T12:38:20;98444.00;;;11.88;82.77
53270;BME280;39159;45.634;9.420;2023-12-20T12:40:46;98453.16;;;11.92;82.37
53270;BME280;39159;45.634;9.420;2023-12-20T12:43:11;98437.50;;;12.01;83.39
53270;BME280;39159;45.634;9.420;2023-12-20T12:45:38;98431.13;;;11.79;80.38
53270;BME280;39159;45.634;9.420;2023-12-20T12:48:03;98424.91;;;11.70;83.67
53270;BME280;39159;45.634;9.420;2023-12-20T12:50:30;98418.97;;;11.59;82.42
53270;BME280;39159;45.634;9.420;2023-12-20T12:52:55;98422.66;;;11.64;84.31
53270;BME280;39159;45.634;9.420;2023-12-20T12:55:20;98429.56;;;11.70;82.73
53270;BME280;39159;45.634;9.420;2023-12-20T12:57:46;98429.19;;;11.80;82.98
53270;BME280;39159;45.634;9.420;2023-12-20T13:00:11;98427.59;;;11.88;81.17
53270;BME280;39159;45.634;9.420;2023-12-20T13:02:37;98425.22;;;11.69;82.89
53270;BME280;39159;45.634;9.420;2023-12-20T13:05:04;98410.31;;;11.87;82.25